Terminal Aerodrome Forecast
Issued by NWS Boston, MA

Home | Current Version | Previous Version | Text Only | Print | Product List | Glossary On
Versions: 1 2 3 4 5 6 7 8 9 10 11 12 13 14 15 16 17 18 19 20 21 22 23 24
000
FTUS41 KBOX 202320
TAFPVD
TAF
KPVD 202320Z 2100/2124 02017G25KT 5SM -DZ BR OVC015
     FM210300 01015G32KT P6SM OVC015
     FM211400 01020G35KT P6SM OVC020
     FM211600 01020G34KT P6SM OVC050=

USA.gov is the U.S. government's official web portal to all federal, state and local government web resources and services.